Time;durP1;ratioP1;P1;durP2;ratioP2;P2;SDS_P1;SDS_P2;PMS_P1;PMS_P2;Temp;Humidity;BMP_temperature;BMP_pressure;BME280_temperature;BME280_humidity;BME280_pressure;Samples;Min_cycle;Max_cycle;Signal;HPM_P1;HPM_P2
2021/10/09 00:00:06;;;;;;;11.48;5.60;;;;;;;11.52;96.29;100599.56;4993914;28;20046;-84
2021/10/09 00:02:33;;;;;;;11.90;5.07;;;;;;;11.55;96.21;100606.38;4993565;28;20100;-83
2021/10/09 00:05:00;;;;;;;11.30;4.53;;;;;;;11.61;94.56;100598.28;5006070;28;20089;-85
2021/10/09 00:07:27;;;;;;;12.02;4.60;;;;;;;11.79;92.90;100594.75;5011774;28;20042;-85
2021/10/09 00:09:57;;;;;;;8.23;4.63;;;;;;;11.58;95.13;100602.78;4998139;28;20050;-85
2021/10/09 00:12:24;;;;;;;7.72;4.65;;;;;;;11.35;96.26;100604.75;4997417;28;20494;-85
2021/10/09 00:14:50;;;;;;;11.70;4.68;;;;;;;11.43;96.28;100593.94;4997804;28;20043;-85
2021/10/09 00:17:19;;;;;;;9.43;5.20;;;;;;;11.72;93.63;100597.75;4997562;28;20101;-84
2021/10/09 00:19:47;;;;;;;9.50;5.07;;;;;;;11.68;92.96;100589.22;4997543;28;20038;-84
2021/10/09 00:22:13;;;;;;;14.38;6.47;;;;;;;11.71;92.94;100596.03;4997852;28;20034;-83
2021/10/09 00:24:40;;;;;;;10.05;4.85;;;;;;;11.58;94.45;100598.41;5026530;28;20539;-84
2021/10/09 00:27:07;;;;;;;17.08;5.30;;;;;;;11.40;95.68;100600.16;5010917;28;20046;-84
2021/10/09 00:29:34;;;;;;;12.77;5.18;;;;;;;11.38;95.50;100601.13;4996966;28;20045;-84
2021/10/09 00:32:01;;;;;;;9.95;4.72;;;;;;;11.43;94.66;100601.75;4997301;28;20469;-84
2021/10/09 00:34:28;;;;;;;15.10;4.78;;;;;;;11.46;94.66;100605.06;4995620;28;20038;-84
2021/10/09 00:36:55;;;;;;;8.25;4.47;;;;;;;11.40;95.46;100602.75;4995642;28;20042;-81
2021/10/09 00:39:22;;;;;;;11.93;4.68;;;;;;;11.26;96.74;100597.34;4997062;28;20049;-83
2021/10/09 00:41:49;;;;;;;5.95;4.57;;;;;;;11.43;95.33;100605.22;4997117;28;20064;-84
2021/10/09 00:44:17;;;;;;;12.65;5.15;;;;;;;11.02;98.60;100605.41;4996422;28;20390;-82
2021/10/09 00:46:45;;;;;;;11.65;5.30;;;;;;;10.96;100.00;100603.06;4996979;28;20042;-82
2021/10/09 00:49:15;;;;;;;7.72;4.57;;;;;;;11.01;98.51;100601.09;4997273;28;20070;-85
2021/10/09 00:51:43;;;;;;;11.65;4.78;;;;;;;10.88;99.86;100610.41;4995684;28;20432;-82
2021/10/09 00:54:12;;;;;;;8.45;4.85;;;;;;;10.86;100.00;100614.81;4997023;28;20042;-83
2021/10/09 00:56:43;;;;;;;12.15;4.78;;;;;;;10.90;100.00;100599.88;4996473;28;20046;-83
2021/10/09 00:59:10;;;;;;;9.77;5.15;;;;;;;10.84;100.00;100608.00;4996649;28;20481;-84
2021/10/09 01:01:37;;;;;;;6.82;4.18;;;;;;;10.81;100.00;100600.28;4995004;28;20039;-84
2021/10/09 01:04:05;;;;;;;9.45;5.53;;;;;;;10.80;100.00;100598.59;4996574;28;20035;-83
2021/10/09 01:06:33;;;;;;;10.95;5.93;;;;;;;10.73;100.00;100598.88;5006526;28;20038;-83
2021/10/09 01:09:03;;;;;;;6.82;4.55;;;;;;;10.68;100.00;100600.84;5016382;28;20412;-84
2021/10/09 01:11:31;;;;;;;6.63;4.28;;;;;;;10.58;100.00;100601.34;5014381;28;20045;-84
2021/10/09 01:14:00;;;;;;;8.48;4.75;;;;;;;10.66;100.00;100597.47;4998811;28;20042;-84
2021/10/09 01:16:29;;;;;;;12.27;6.30;;;;;;;10.65;100.00;100600.13;4994470;28;20050;-84
2021/10/09 01:18:59;;;;;;;17.90;6.82;;;;;;;10.74;100.00;100589.31;4995269;28;20046;-84
2021/10/09 01:21:41;;;;;;;15.15;4.63;;;;;;;10.67;100.00;100596.56;4995991;28;20350;-82
2021/10/09 01:24:09;;;;;;;11.05;4.80;;;;;;;10.65;100.00;100594.91;5012996;28;20050;-83
2021/10/09 01:26:37;;;;;;;13.93;5.50;;;;;;;10.49;100.00;100593.03;4995931;28;20046;-83
2021/10/09 01:29:08;;;;;;;10.77;5.20;;;;;;;10.52;100.00;100585.97;4995645;28;20053;-83
2021/10/09 01:31:36;;;;;;;13.18;4.22;;;;;;;10.60;100.00;100584.72;4995964;28;20119;-85
2021/10/09 01:34:04;;;;;;;11.98;4.70;;;;;;;10.60;100.00;100595.16;4997024;28;20050;-84
2021/10/09 01:36:34;;;;;;;9.45;5.13;;;;;;;10.66;100.00;100586.22;4995214;28;20046;-84
2021/10/09 01:39:03;;;;;;;17.52;7.00;;;;;;;10.79;99.53;100582.13;4994873;28;20058;-85
2021/10/09 01:41:43;;;;;;;8.57;5.13;;;;;;;10.85;98.56;100579.22;4995015;28;20046;-86
2021/10/09 01:44:10;;;;;;;18.40;5.20;;;;;;;10.85;98.48;100574.00;4994883;28;20050;-86
2021/10/09 01:46:38;;;;;;;11.45;4.68;;;;;;;10.93;97.38;100569.31;5011340;28;20051;-85
2021/10/09 01:49:06;;;;;;;15.20;6.95;;;;;;;10.99;96.91;100573.38;4994745;28;20134;-84
2021/10/09 01:51:34;;;;;;;10.88;4.68;;;;;;;11.09;96.39;100576.41;4994397;28;20053;-84
2021/10/09 01:54:01;;;;;;;9.52;4.25;;;;;;;11.11;95.16;100570.19;4994521;28;20047;-83
2021/10/09 01:56:29;;;;;;;11.10;4.60;;;;;;;11.05;95.89;100570.50;4993825;28;20049;-83
2021/10/09 01:58:56;;;;;;;15.30;4.57;;;;;;;10.91;96.76;100571.13;4994387;28;20097;-83
2021/10/09 02:01:31;;;;;;;8.40;4.82;;;;;;;11.01;96.59;100567.16;4994000;28;20043;-84
2021/10/09 02:04:00;;;;;;;7.32;4.25;;;;;;;11.10;96.01;100562.44;4994198;28;20042;-83
2021/10/09 02:06:28;;;;;;;9.35;5.25;;;;;;;11.14;94.62;100553.56;4994309;28;20042;-83
2021/10/09 02:08:55;;;;;;;7.55;4.72;;;;;;;11.13;94.92;100559.69;5010442;28;20133;-83
2021/10/09 02:11:27;;;;;;;14.02;4.40;;;;;;;11.09;94.85;100548.56;5010675;28;20437;-82
2021/10/09 02:27:11;;;;;;;10.77;5.43;;;;;;;11.38;92.26;100538.47;4994396;28;20061;-84
2021/10/09 02:29:41;;;;;;;10.00;5.13;;;;;;;11.40;92.64;100531.41;4993604;28;20457;-85
2021/10/09 02:32:08;;;;;;;15.38;4.70;;;;;;;11.42;92.73;100533.03;5009458;28;20413;-85
2021/10/09 02:34:35;;;;;;;11.52;3.88;;;;;;;11.32;93.94;100529.19;4994852;28;20116;-85
2021/10/09 02:37:02;;;;;;;7.57;4.28;;;;;;;11.04;96.87;100544.47;4995290;28;20049;-82
2021/10/09 02:39:32;;;;;;;8.88;3.78;;;;;;;11.05;96.95;100533.13;4993080;28;20042;-80
2021/10/09 02:41:59;;;;;;;7.68;4.57;;;;;;;11.06;96.24;100527.81;4993346;28;20050;-81
2021/10/09 02:44:26;;;;;;;8.80;4.15;;;;;;;11.00;96.68;100523.75;5009340;28;20082;-82
2021/10/09 02:46:52;;;;;;;10.13;5.10;;;;;;;11.02;96.56;100534.09;4993003;28;20501;-81
2021/10/09 02:49:19;;;;;;;12.70;4.68;;;;;;;11.04;96.27;100539.25;4993191;28;20054;-80
2021/10/09 02:51:46;;;;;;;11.48;5.65;;;;;;;10.98;96.73;100528.19;4994191;28;20093;-80
2021/10/09 02:54:13;;;;;;;8.25;5.22;;;;;;;10.86;97.97;100533.97;4994700;28;20046;-81
2021/10/09 02:56:40;;;;;;;9.57;3.92;;;;;;;10.79;98.14;100526.50;4995616;28;20042;-81
2021/10/09 02:59:06;;;;;;;13.60;4.88;;;;;;;10.70;98.34;100526.00;4993634;28;20046;-80
2021/10/09 03:01:33;;;;;;;7.47;4.65;;;;;;;10.58;99.40;100526.56;4994698;28;20400;-80
2021/10/09 03:04:00;;;;;;;8.40;4.65;;;;;;;10.70;98.96;100530.38;4995636;28;20563;-80
2021/10/09 03:06:28;;;;;;;11.77;4.25;;;;;;;10.66;99.19;100519.28;4994045;28;20058;-80
2021/10/09 03:08:55;;;;;;;13.93;5.60;;;;;;;10.59;99.54;100512.63;4994061;28;20042;-80
2021/10/09 03:11:22;;;;;;;7.25;4.40;;;;;;;10.53;100.00;100507.69;5009028;28;20050;-80
2021/10/09 03:13:49;;;;;;;8.13;4.60;;;;;;;10.61;99.69;100521.25;4992745;28;20085;-80
2021/10/09 03:16:16;;;;;;;10.18;5.25;;;;;;;10.82;97.38;100508.13;4992799;28;20046;-80
2021/10/09 03:18:43;;;;;;;9.63;6.95;;;;;;;11.03;95.29;100512.34;4992409;28;20113;-80
2021/10/09 03:21:10;;;;;;;10.48;5.20;;;;;;;10.93;95.88;100517.13;4994421;28;20046;-79
2021/10/09 03:23:37;;;;;;;5.97;4.60;;;;;;;10.89;96.48;100520.81;4993944;28;20046;-81
2021/10/09 03:26:04;;;;;;;8.85;4.50;;;;;;;10.92;96.53;100515.44;4994059;28;20042;-80
2021/10/09 03:28:31;;;;;;;14.82;5.47;;;;;;;10.85;96.97;100514.03;4992418;28;20047;-80
2021/10/09 03:30:58;;;;;;;13.90;4.80;;;;;;;10.81;96.57;100509.88;5009205;28;20042;-80
2021/10/09 03:33:25;;;;;;;11.13;4.82;;;;;;;10.91;96.17;100513.75;4993450;28;20133;-80
2021/10/09 03:35:52;;;;;;;6.75;4.65;;;;;;;11.10;94.16;100518.09;4992493;28;20085;-80
2021/10/09 03:38:20;;;;;;;12.88;4.38;;;;;;;11.00;94.21;100522.91;4991959;28;20069;-79
2021/10/09 03:40:51;;;;;;;12.73;4.35;;;;;;;11.09;94.00;100524.25;4992398;28;20049;-81
2021/10/09 03:43:21;;;;;;;6.25;4.55;;;;;;;11.12;93.56;100524.06;4991974;28;20043;-81
2021/10/09 03:48:45;;;;;;;7.07;4.75;;;;;;;10.96;95.34;100527.41;4988442;28;20556;-81
2021/10/09 03:53:57;;;;;;;15.65;4.68;;;;;;;10.92;96.70;100530.22;5008566;28;20047;-81
2021/10/09 03:56:24;;;;;;;13.98;4.13;;;;;;;10.67;98.99;100530.53;5008150;28;20042;-80
2021/10/09 03:58:51;;;;;;;9.95;6.07;;;;;;;10.81;98.63;100528.13;5008755;28;20063;-81
2021/10/09 04:01:19;;;;;;;11.18;5.72;;;;;;;10.82;97.41;100529.00;4991835;28;20085;-82
2021/10/09 04:03:46;;;;;;;9.93;4.57;;;;;;;10.86;97.95;100533.13;4993465;28;20142;-81
2021/10/09 04:06:13;;;;;;;8.32;3.83;;;;;;;10.85;97.17;100526.22;5008478;28;20374;-81
2021/10/09 04:08:40;;;;;;;9.43;4.82;;;;;;;10.88;96.91;100524.34;4992182;28;20047;-82
2021/10/09 04:11:06;;;;;;;14.73;6.05;;;;;;;10.89;97.25;100520.81;5008341;28;20045;-81
2021/10/09 04:13:34;;;;;;;8.88;4.78;;;;;;;10.87;96.75;100521.81;4992130;28;20043;-81
2021/10/09 04:16:01;;;;;;;12.10;5.07;;;;;;;10.79;97.62;100518.69;4991806;28;20138;-80
2021/10/09 04:18:29;;;;;;;8.23;4.55;;;;;;;10.68;98.13;100512.22;5008068;28;20420;-79
2021/10/09 04:20:55;;;;;;;12.57;4.47;;;;;;;10.60;99.66;100516.94;4992276;28;20038;-80
2021/10/09 04:23:22;;;;;;;13.45;4.35;;;;;;;10.54;100.00;100518.97;4991767;28;20046;-80
2021/10/09 04:25:50;;;;;;;10.65;5.78;;;;;;;10.60;99.49;100516.06;4991729;28;20038;-80
2021/10/09 04:28:17;;;;;;;7.95;5.00;;;;;;;10.75;98.83;100525.81;5008242;28;20081;-80
2021/10/09 04:30:45;;;;;;;8.05;4.68;;;;;;;10.81;97.95;100533.34;4991950;28;20504;-79
2021/10/09 04:33:13;;;;;;;19.42;5.53;;;;;;;10.71;98.41;100521.66;4991434;28;20038;-80
2021/10/09 04:35:42;;;;;;;8.18;4.53;;;;;;;10.87;97.40;100532.22;4991695;28;20046;-80
2021/10/09 04:38:10;;;;;;;10.35;5.28;;;;;;;10.94;96.32;100533.63;4991434;28;20046;-80
2021/10/09 04:40:39;;;;;;;14.73;5.22;;;;;;;11.00;95.99;100526.34;4991956;28;20069;-82
2021/10/09 04:43:07;;;;;;;5.38;3.90;;;;;;;10.92;97.49;100525.88;4991558;28;20050;-82
2021/10/09 04:45:34;;;;;;;20.45;4.85;;;;;;;11.02;96.92;100531.50;4991756;28;20047;-82
2021/10/09 04:48:05;;;;;;;10.98;4.97;;;;;;;10.97;96.25;100531.72;5007869;28;20480;-80
2021/10/09 04:50:34;;;;;;;7.65;4.78;;;;;;;11.05;95.53;100535.72;4992062;28;20050;-81
2021/10/09 04:53:05;;;;;;;7.07;4.65;;;;;;;11.06;95.32;100533.03;4989701;28;20409;-81
2021/10/09 04:55:32;;;;;;;15.73;4.38;;;;;;;11.24;93.81;100526.13;4992843;28;20088;-80
2021/10/09 04:58:00;;;;;;;12.32;5.68;;;;;;;11.21;94.10;100523.66;4994128;28;20086;-79
2021/10/09 05:00:28;;;;;;;11.65;5.35;;;;;;;11.18;94.79;100526.38;4995609;28;20053;-79
2021/10/09 05:02:55;;;;;;;12.98;6.10;;;;;;;11.14;95.50;100517.88;4994946;28;20089;-80
2021/10/09 05:05:21;;;;;;;20.40;5.18;;;;;;;11.23;94.33;100524.41;5003617;28;20047;-79
2021/10/09 05:07:50;;;;;;;14.25;5.15;;;;;;;11.38;93.27;100534.09;4998659;28;20039;-84
2021/10/09 05:10:19;;;;;;;8.93;5.47;;;;;;;11.51;91.78;100524.78;5002530;28;20073;-83
2021/10/09 05:13:04;;;;;;;11.20;4.72;;;;;;;11.52;91.34;100533.44;5009774;28;20042;-83
2021/10/09 05:15:32;;;;;;;8.32;5.55;;;;;;;11.39;93.08;100533.19;5007193;28;20045;-81
2021/10/09 05:17:59;;;;;;;13.57;5.82;;;;;;;11.46;92.63;100525.91;4996089;28;20097;-82
2021/10/09 05:20:27;;;;;;;9.77;5.38;;;;;;;11.47;91.88;100525.00;5003483;28;20035;-82
2021/10/09 05:22:53;;;;;;;9.77;5.50;;;;;;;11.48;91.72;100530.13;4992706;28;20539;-85
2021/10/09 05:25:25;;;;;;;8.70;4.78;;;;;;;11.47;93.65;100536.28;4993178;28;20441;-82
2021/10/09 05:28:00;;;;;;;7.63;5.18;;;;;;;11.47;93.98;100533.66;4994901;28;20125;-82
2021/10/09 05:30:33;;;;;;;11.45;4.63;;;;;;;11.54;92.65;100549.88;4998288;28;20046;-79
2021/10/09 05:33:36;;;;;;;13.20;4.72;;;;;;;11.58;91.52;100550.56;4988821;28;20082;-83
2021/10/09 05:35:49;;;;;;;14.02;5.45;;;;;;;11.65;90.95;100557.16;4994603;28;20046;-82
2021/10/09 05:38:17;;;;;;;5.90;4.55;;;;;;;11.62;92.17;100557.34;4991484;28;20069;-82
2021/10/09 05:40:44;;;;;;;9.88;5.68;;;;;;;11.63;93.49;100556.41;4977782;28;20049;-83
2021/10/09 05:43:11;;;;;;;9.18;5.05;;;;;;;11.81;90.31;100560.72;4993191;28;20520;-84
2021/10/09 05:45:38;;;;;;;7.13;4.30;;;;;;;11.72;92.18;100562.03;4991653;28;20043;-84
2021/10/09 05:48:07;;;;;;;9.93;5.10;;;;;;;11.76;92.29;100565.31;4991223;28;20042;-83
2021/10/09 05:59:22;;;;;;;13.32;5.50;;;;;;;12.05;88.09;100564.75;5007427;28;20046;-85
2021/10/09 06:37:24;;;;;;;10.77;5.13;;;;;;;12.97;87.01;100598.28;4996360;28;20046;-84
2021/10/09 06:46:56;;;;;;;12.00;6.82;;;;;;;13.18;84.21;100610.19;4999356;28;20046;-86
2021/10/09 07:00:12;;;;;;;10.32;5.47;;;;;;;13.27;82.07;100624.59;4994920;28;20057;-85
2021/10/09 07:02:41;;;;;;;13.40;6.88;;;;;;;13.76;79.43;100619.22;5010030;28;20038;-86
2021/10/09 07:05:11;;;;;;;12.48;4.97;;;;;;;13.56;80.28;100629.03;4979266;28;20051;-86
2021/10/09 07:07:58;;;;;;;12.05;5.75;;;;;;;13.65;80.33;100626.84;4993605;28;20489;-83
2021/10/09 07:10:41;;;;;;;13.57;6.40;;;;;;;13.43;79.91;100632.44;5008881;28;20449;-83
2021/10/09 07:13:09;;;;;;;9.20;5.28;;;;;;;13.56;78.93;100631.66;5000736;28;20043;-85
2021/10/09 07:15:37;;;;;;;9.48;5.63;;;;;;;14.26;75.30;100634.59;4993095;28;20101;-85
2021/10/09 07:18:10;;;;;;;11.30;5.68;;;;;;;14.58;73.33;100640.56;4993040;28;20397;-85
2021/10/09 07:20:38;;;;;;;8.55;4.97;;;;;;;14.72;71.97;100634.50;4991061;28;20133;-85
2021/10/09 07:23:05;;;;;;;11.50;5.47;;;;;;;14.96;71.41;100644.44;4990526;28;20061;-85
2021/10/09 07:25:32;;;;;;;14.60;5.80;;;;;;;14.23;73.83;100649.69;5002269;28;20041;-86
2021/10/09 07:28:00;;;;;;;9.15;5.88;;;;;;;14.36;74.11;100650.63;4992217;28;20073;-85
2021/10/09 07:30:28;;;;;;;8.23;5.97;;;;;;;15.09;71.50;100648.00;4990992;28;20073;-85
2021/10/09 07:32:54;;;;;;;14.77;5.72;;;;;;;14.93;70.71;100646.31;4992094;28;20042;-85
2021/10/09 07:35:22;;;;;;;7.07;6.20;;;;;;;14.71;70.18;100651.19;4994397;28;20073;-85
2021/10/09 07:37:49;;;;;;;13.85;6.70;;;;;;;14.76;71.57;100648.28;4993498;28;20040;-85
2021/10/09 07:40:18;;;;;;;10.88;6.60;;;;;;;14.13;72.94;100647.59;4994216;28;20046;-85
2021/10/09 07:42:45;;;;;;;11.57;6.35;;;;;;;14.22;71.36;100647.97;4976743;28;20501;-85
2021/10/09 07:45:13;;;;;;;12.48;7.82;;;;;;;14.13;72.27;100650.22;4992487;28;20120;-85
2021/10/09 07:47:41;;;;;;;8.93;5.90;;;;;;;13.92;71.82;100655.88;4993927;28;20532;-85
2021/10/09 07:50:09;;;;;;;10.82;5.65;;;;;;;13.78;71.66;100665.34;4993763;28;20042;-85
2021/10/09 07:52:35;;;;;;;10.50;6.32;;;;;;;13.95;72.70;100660.91;4994082;28;20042;-85
2021/10/09 07:55:03;;;;;;;12.35;6.32;;;;;;;14.11;70.37;100662.59;4993226;28;20042;-85
2021/10/09 07:57:31;;;;;;;9.55;5.72;;;;;;;14.07;69.04;100663.69;5010574;28;20065;-84
2021/10/09 07:59:57;;;;;;;12.65;6.20;;;;;;;14.21;69.58;100668.13;5013060;28;20045;-85
2021/10/09 08:02:24;;;;;;;12.45;5.88;;;;;;;14.51;67.31;100660.25;5014113;28;20042;-83
2021/10/09 08:04:51;;;;;;;7.28;5.85;;;;;;;14.47;68.58;100674.47;5012599;28;20046;-86
2021/10/09 08:07:19;;;;;;;13.57;5.53;;;;;;;14.24;70.09;100667.09;5002904;28;20046;-86
2021/10/09 08:09:45;;;;;;;14.90;6.13;;;;;;;14.28;69.50;100664.22;4987298;28;20046;-83
2021/10/09 08:12:12;;;;;;;10.85;7.22;;;;;;;14.46;68.46;100661.44;4993640;28;20097;-84
2021/10/09 08:14:39;;;;;;;11.52;6.22;;;;;;;14.01;69.63;100666.66;5022333;23;20368;-88
2021/10/09 08:17:06;;;;;;;7.10;5.70;;;;;;;14.23;69.83;100671.50;5012626;28;20088;-91
2021/10/09 08:19:32;;;;;;;8.85;5.82;;;;;;;14.01;68.29;100671.91;5012875;28;20046;-91
2021/10/09 08:22:03;;;;;;;10.82;6.97;;;;;;;13.93;69.97;100675.88;5012362;28;20174;-90
2021/10/09 08:24:36;;;;;;;7.75;5.55;;;;;;;13.97;71.19;100686.13;5012934;28;20037;-91
2021/10/09 08:27:18;;;;;;;11.43;5.90;;;;;;;13.84;71.70;100685.09;5012743;28;20048;-88
2021/10/09 08:35:35;;;;;;;12.88;6.25;;;;;;;13.82;73.25;100697.47;4975247;28;20042;-89
2021/10/09 08:40:48;;;;;;;10.20;6.28;;;;;;;13.89;73.44;100688.31;5016486;28;20473;-87
2021/10/09 08:43:15;;;;;;;14.32;10.70;;;;;;;13.96;72.66;100684.44;5016232;28;20054;-88
2021/10/09 08:45:42;;;;;;;11.00;7.57;;;;;;;14.16;71.31;100676.25;5016256;28;20049;-87
2021/10/09 08:48:08;;;;;;;12.25;6.28;;;;;;;14.08;67.81;100688.13;5014678;28;20045;-87
2021/10/09 08:50:35;;;;;;;13.48;7.00;;;;;;;14.38;66.84;100688.09;5016066;28;20125;-88
2021/10/09 08:53:09;;;;;;;14.30;6.93;;;;;;;14.19;68.83;100695.38;5015870;28;20053;-89
2021/10/09 08:55:45;;;;;;;14.38;7.65;;;;;;;14.40;67.73;100694.13;5015722;28;20056;-88
2021/10/09 08:58:32;;;;;;;10.68;6.85;;;;;;;14.35;67.74;100697.00;5015983;28;20046;-88
2021/10/09 09:01:14;;;;;;;10.65;5.95;;;;;;;14.32;66.60;100696.34;5015569;28;20076;-89
2021/10/09 09:04:22;;;;;;;10.85;5.68;;;;;;;14.44;64.25;100693.00;5016052;28;20382;-89
2021/10/09 09:39:44;;;;;;;14.05;5.15;;;;;;;15.27;60.00;100693.25;4995514;28;20048;-88
2021/10/09 09:42:22;;;;;;;10.10;5.68;;;;;;;15.22;59.79;100680.41;4995291;28;20081;-86
2021/10/09 09:45:00;;;;;;;15.07;6.50;;;;;;;15.52;58.44;100692.56;5010551;28;20121;-90
2021/10/09 09:47:37;;;;;;;10.02;5.25;;;;;;;15.85;58.41;100689.59;4994222;28;20066;-89
2021/10/09 09:50:06;;;;;;;7.32;5.10;;;;;;;15.48;58.81;100684.03;4995642;28;20100;-90
2021/10/09 09:52:39;;;;;;;10.82;5.63;;;;;;;16.72;55.66;100673.25;4995263;28;20046;-88
2021/10/09 09:55:08;;;;;;;12.52;6.20;;;;;;;16.48;56.33;100681.00;4994982;28;20098;-90
2021/10/09 09:57:36;;;;;;;9.75;7.10;;;;;;;15.22;60.01;100667.28;4995121;28;20043;-90
2021/10/09 10:00:11;;;;;;;8.27;5.40;;;;;;;15.70;57.60;100670.38;4995180;28;20405;-90
2021/10/09 10:02:40;;;;;;;10.93;5.43;;;;;;;15.24;58.95;100675.09;4995307;28;20105;-90
2021/10/09 10:05:07;;;;;;;13.25;6.15;;;;;;;15.49;58.69;100674.34;4993121;28;20474;-90
2021/10/09 10:07:35;;;;;;;6.53;5.50;;;;;;;15.57;57.67;100669.47;4992588;28;20512;-88
2021/10/09 10:10:04;;;;;;;11.63;5.32;;;;;;;16.17;55.80;100669.91;4993552;28;20043;-92
2021/10/09 10:12:31;;;;;;;11.52;5.13;;;;;;;16.45;56.20;100671.50;4992674;28;20058;-87
2021/10/09 10:14:59;;;;;;;8.52;5.25;;;;;;;15.97;56.21;100670.38;4992384;28;20501;-86
2021/10/09 10:17:43;;;;;;;11.77;4.88;;;;;;;15.56;56.38;100666.00;5005061;28;20453;-89
2021/10/09 10:20:14;;;;;;;;;;;;;;;15.92;56.16;100670.66;4991822;28;20046;-88
2021/10/09 10:22:41;;;;;;;11.15;5.10;;;;;;;17.03;53.16;100657.00;4992832;28;20320;-88
2021/10/09 10:25:16;;;;;;;13.35;7.43;;;;;;;16.46;54.32;100661.88;4993775;28;20081;-88
2021/10/09 10:27:45;;;;;;;13.60;5.65;;;;;;;16.32;54.00;100659.31;4992920;28;20112;-87
2021/10/09 10:30:14;;;;;;;13.95;5.88;;;;;;;16.01;54.97;100657.88;4992843;28;20046;-88
2021/10/09 10:32:52;;;;;;;8.60;5.07;;;;;;;16.09;55.78;100656.44;4992453;28;20047;-85
2021/10/09 10:35:34;;;;;;;17.17;5.88;;;;;;;15.99;55.08;100663.25;4992148;28;20042;-86
2021/10/09 10:38:03;;;;;;;21.63;6.05;;;;;;;16.84;54.00;100647.88;4989567;28;20493;-86
2021/10/09 10:40:55;;;;;;;9.13;4.97;;;;;;;16.62;53.64;100657.25;4994126;28;20054;-88
2021/10/09 10:46:25;;;;;;;15.10;8.05;;;;;;;16.30;55.41;100661.19;4992919;28;20046;-85
2021/10/09 10:51:39;;;;;;;15.13;5.18;;;;;;;17.13;53.33;100659.84;4992434;28;20053;-88
2021/10/09 10:56:55;;;;;;;11.40;5.75;;;;;;;16.96;53.81;100649.66;4989888;28;20046;-88
2021/10/09 10:59:26;;;;;;;;;;;;;;;16.97;53.76;100652.16;4987886;28;20061;-88
2021/10/09 11:02:09;;;;;;;10.23;5.82;;;;;;;16.31;56.68;100662.91;4990594;28;19921;-89
2021/10/09 11:04:41;;;;;;;14.98;5.25;;;;;;;17.05;54.61;100651.66;4990615;28;20140;-90
2021/10/09 11:07:10;;;;;;;19.75;4.70;;;;;;;17.31;51.43;100656.84;4989033;28;20046;-90
2021/10/09 11:09:40;;;;;;;10.85;5.70;;;;;;;16.34;51.58;100644.25;4991527;28;20077;-88
2021/10/09 11:12:31;;;;;;;12.73;5.07;;;;;;;16.02;50.93;100655.13;4990571;28;20042;-88
2021/10/09 11:15:07;;;;;;;10.60;4.53;;;;;;;16.28;51.36;100653.41;4989065;28;20548;-92
2021/10/09 11:17:39;;;;;;;8.48;4.72;;;;;;;16.34;52.58;100652.16;4990406;28;20038;-85
2021/10/09 11:20:08;;;;;;;10.05;5.50;;;;;;;16.13;53.80;100650.00;4989677;28;20545;-86
2021/10/09 11:22:48;;;;;;;8.43;4.47;;;;;;;16.24;52.49;100652.78;4989248;28;20516;-87
2021/10/09 11:25:31;;;;;;;8.48;5.18;;;;;;;16.12;51.48;100645.69;4987790;28;20089;-88
2021/10/09 11:28:03;;;;;;;11.77;4.50;;;;;;;16.23;50.92;100645.81;4986761;28;20043;-87
2021/10/09 11:30:32;;;;;;;11.73;4.47;;;;;;;16.79;47.21;100642.09;4989524;28;20054;-88
2021/10/09 11:33:00;;;;;;;8.32;4.03;;;;;;;16.79;47.19;100642.94;4991365;28;20045;-84
2021/10/09 11:35:33;;;;;;;13.30;4.10;;;;;;;17.35;45.25;100647.75;4985699;28;20401;-90
2021/10/09 11:38:03;;;;;;;9.30;3.25;;;;;;;17.53;46.33;100639.38;4988952;28;20039;-84
2021/10/09 11:40:31;;;;;;;8.02;3.67;;;;;;;17.90;45.23;100639.34;5004584;28;20050;-85
2021/10/09 11:43:10;;;;;;;6.90;4.05;;;;;;;17.71;43.86;100637.19;4985726;28;20206;-85
2021/10/09 11:45:43;;;;;;;11.95;3.45;;;;;;;17.44;44.00;100636.56;4990040;28;20097;-89
2021/10/09 11:54:23;;;;;;;9.07;3.70;;;;;;;17.25;45.01;100627.34;4985311;28;20054;-89
2021/10/09 11:56:43;;;;;;;6.05;3.88;;;;;;;17.02;45.75;100628.16;4985608;28;20096;-90
2021/10/09 11:59:11;;;;;;;8.20;3.90;;;;;;;17.34;44.93;100625.84;4987574;28;20034;-89
2021/10/09 12:01:43;;;;;;;7.78;4.75;;;;;;;17.30;44.72;100624.38;4990006;28;20073;-90
2021/10/09 12:04:20;;;;;;;11.70;5.78;;;;;;;18.29;43.50;100616.19;4989104;28;20113;-87
2021/10/09 12:06:50;;;;;;;15.90;7.18;;;;;;;17.99;43.18;100620.19;4992461;28;20093;-89
2021/10/09 12:09:57;;;;;;;8.35;5.00;;;;;;;17.56;44.10;100617.22;4996379;28;20042;-89
2021/10/09 12:12:35;;;;;;;11.10;3.90;;;;;;;18.27;43.33;100603.13;4994644;28;20042;-88
2021/10/09 12:15:02;;;;;;;8.07;3.55;;;;;;;17.68;44.07;100608.41;4992401;28;20038;-89
2021/10/09 12:17:35;;;;;;;11.25;4.40;;;;;;;16.91;44.42;100605.22;4995792;28;20049;-91
2021/10/09 12:20:10;;;;;;;14.05;5.65;;;;;;;18.00;41.81;100599.91;4995127;28;20156;-90
2021/10/09 12:22:44;;;;;;;10.77;4.30;;;;;;;17.62;42.47;100608.00;4993078;28;20080;-90
2021/10/09 12:25:24;;;;;;;12.85;4.68;;;;;;;18.08;41.73;100596.72;4992475;28;20489;-89
2021/10/09 12:27:56;;;;;;;7.25;4.53;;;;;;;18.03;42.21;100595.25;4993227;28;20076;-90
2021/10/09 12:30:44;;;;;;;13.70;5.25;;;;;;;17.23;43.78;100594.16;4992280;28;20494;-86
2021/10/09 12:33:10;;;;;;;12.48;4.93;;;;;;;18.06;43.63;100583.66;4993692;28;20381;-93
2021/10/09 12:35:38;;;;;;;11.32;5.43;;;;;;;17.53;44.64;100591.09;4993924;28;20040;-85
2021/10/09 12:38:08;;;;;;;17.08;5.63;;;;;;;17.12;45.25;100589.66;4995437;28;20125;-86
2021/10/09 12:40:39;;;;;;;10.13;4.63;;;;;;;17.48;43.06;100585.31;4994326;28;20135;-86
2021/10/09 12:43:10;;;;;;;6.55;4.35;;;;;;;17.46;42.53;100577.50;4994963;28;20125;-87
2021/10/09 12:45:38;;;;;;;9.18;5.63;;;;;;;18.01;42.84;100576.09;5010523;28;20069;-88
2021/10/09 12:48:07;;;;;;;8.27;4.85;;;;;;;18.30;42.28;100576.47;4992747;28;20517;-87
2021/10/09 12:50:36;;;;;;;6.25;3.67;;;;;;;18.60;41.14;100583.00;4993338;28;21173;-88
2021/10/09 12:53:04;;;;;;;10.93;4.95;;;;;;;18.28;41.96;100583.69;4993182;28;20482;-87
2021/10/09 12:55:33;;;;;;;10.43;4.75;;;;;;;16.82;44.14;100583.94;4993982;28;20066;-87
2021/10/09 12:58:04;;;;;;;7.30;3.90;;;;;;;17.47;42.93;100579.22;4992336;28;20039;-88
2021/10/09 13:00:33;;;;;;;10.32;4.25;;;;;;;18.17;41.42;100565.19;4994151;28;20108;-88
2021/10/09 13:03:02;;;;;;;6.93;3.97;;;;;;;16.83;44.42;100585.63;4991228;28;20031;-87
2021/10/09 13:05:31;;;;;;;10.27;4.80;;;;;;;17.78;43.23;100580.44;4989639;28;20042;-86
2021/10/09 13:08:00;;;;;;;8.63;3.67;;;;;;;17.90;42.37;100580.50;4992292;28;20050;-85
2021/10/09 13:10:33;;;;;;;13.25;6.28;;;;;;;17.79;43.50;100579.50;4990851;28;20136;-86
2021/10/09 13:13:00;;;;;;;10.18;4.60;;;;;;;17.49;42.92;100584.38;4994583;28;20077;-89
2021/10/09 13:15:27;;;;;;;8.68;4.25;;;;;;;17.84;43.57;100581.75;4988176;28;20494;-88
2021/10/09 13:17:54;;;;;;;16.65;6.63;;;;;;;17.83;44.09;100576.63;4988214;28;20097;-88
2021/10/09 13:20:25;;;;;;;5.88;4.20;;;;;;;17.14;44.55;100576.38;4986957;28;20041;-87
2021/10/09 13:22:51;;;;;;;16.27;4.60;;;;;;;16.56;45.20;100573.41;4993577;28;20089;-89
2021/10/09 13:25:30;;;;;;;6.90;4.03;;;;;;;16.55;46.04;100577.00;4985856;28;20039;-88
2021/10/09 13:27:58;;;;;;;10.75;4.63;;;;;;;16.88;45.17;100572.97;4976260;28;20410;-87
2021/10/09 13:30:25;;;;;;;11.25;4.25;;;;;;;16.87;45.92;100577.41;4996314;28;20050;-86
2021/10/09 13:32:52;;;;;;;12.82;4.32;;;;;;;16.57;45.29;100572.50;4996233;28;20401;-87
2021/10/09 13:35:19;;;;;;;9.90;4.80;;;;;;;17.14;44.47;100577.22;4988025;28;20043;-88
2021/10/09 13:37:51;;;;;;;12.02;4.05;;;;;;;17.31;43.36;100575.16;4994132;28;20042;-90
2021/10/09 13:40:18;;;;;;;13.48;5.60;;;;;;;17.62;42.97;100569.31;4994060;28;20038;-88
2021/10/09 13:42:44;;;;;;;13.05;3.92;;;;;;;17.72;41.78;100562.44;4992531;28;20096;-86
2021/10/09 13:45:11;;;;;;;6.15;3.65;;;;;;;17.44;41.81;100565.41;4987225;28;20038;-88
2021/10/09 13:47:39;;;;;;;10.32;4.18;;;;;;;17.49;42.45;100560.66;4992357;28;20035;-88